createdAt,value
2018-07-19T00:02:54.840Z,4.27
2018-07-19T00:07:48.098Z,4.13
2018-07-19T00:12:41.349Z,4.23
2018-07-19T00:17:34.837Z,4.00
2018-07-19T00:22:28.217Z,3.97
2018-07-19T00:27:21.457Z,3.98
2018-07-19T00:32:14.682Z,4.23
2018-07-19T00:37:07.986Z,4.17
2018-07-19T00:42:01.264Z,4.37
2018-07-19T00:46:54.519Z,4.07
2018-07-19T00:51:47.763Z,3.95
2018-07-19T00:56:41.057Z,3.60
2018-07-19T01:01:34.324Z,4.12
2018-07-19T01:06:27.643Z,4.23
2018-07-19T01:11:20.982Z,4.05
2018-07-19T01:16:14.203Z,3.70
2018-07-19T01:21:07.465Z,3.87
2018-07-19T01:26:00.673Z,3.70
2018-07-19T01:30:53.918Z,3.57
2018-07-19T01:35:47.152Z,3.40
2018-07-19T01:40:40.387Z,3.60
2018-07-19T01:45:33.627Z,3.65
2018-07-19T01:50:26.890Z,3.90
2018-07-19T01:55:20.168Z,3.67
2018-07-19T02:00:13.477Z,4.13
2018-07-19T02:05:06.759Z,3.80
2018-07-19T02:10:00.015Z,4.40
2018-07-19T02:14:53.275Z,4.33
2018-07-19T02:19:46.582Z,4.13
2018-07-19T02:24:39.837Z,5.40
2018-07-19T02:29:33.209Z,5.67
2018-07-19T02:34:26.497Z,5.25
2018-07-19T02:39:19.817Z,5.50
2018-07-19T02:44:13.837Z,5.03
2018-07-19T02:49:07.421Z,4.90
2018-07-19T02:54:00.655Z,5.00
2018-07-19T02:58:53.817Z,5.13
2018-07-19T03:03:47.082Z,4.97
2018-07-19T03:08:40.404Z,5.05
2018-07-19T03:13:33.650Z,5.00
2018-07-19T03:18:26.919Z,5.70
2018-07-19T03:23:20.166Z,5.90
2018-07-19T03:28:13.430Z,6.10
2018-07-19T03:33:06.800Z,6.30
2018-07-19T03:38:00.071Z,6.30
2018-07-19T03:42:53.444Z,6.30
2018-07-19T03:47:46.689Z,7.03
2018-07-19T03:52:39.854Z,6.30
2018-07-19T03:57:33.131Z,7.03
2018-07-19T04:02:26.416Z,6.15
2018-07-19T04:07:19.659Z,7.13
2018-07-19T04:12:12.933Z,6.35
2018-07-19T04:17:06.208Z,6.70
2018-07-19T04:21:59.469Z,6.37
2018-07-19T04:26:52.751Z,6.20
2018-07-19T04:31:45.990Z,5.80
2018-07-19T04:36:39.209Z,6.57
2018-07-19T04:41:32.479Z,6.22
2018-07-19T04:46:25.709Z,5.60
2018-07-19T04:51:18.956Z,5.95
2018-07-19T04:56:12.210Z,5.80
2018-07-19T05:01:05.539Z,5.50
2018-07-19T05:05:58.781Z,5.50
2018-07-19T05:10:51.915Z,5.08
2018-07-19T05:15:45.133Z,4.97
2018-07-19T05:20:38.338Z,4.47
2018-07-19T05:25:31.607Z,3.97
2018-07-19T05:30:24.873Z,4.45
2018-07-19T05:35:18.106Z,4.20
2018-07-19T05:40:11.377Z,4.03
2018-07-19T05:45:04.819Z,3.60
2018-07-19T05:49:58.078Z,4.43
2018-07-19T05:54:51.321Z,4.30
2018-07-19T05:59:44.573Z,3.97
2018-07-19T06:04:38.447Z,3.90
2018-07-19T06:09:31.736Z,3.93
2018-07-19T06:14:25.013Z,4.33
2018-07-19T06:19:18.261Z,4.17
2018-07-19T06:24:11.519Z,4.40
2018-07-19T06:29:04.775Z,4.90
2018-07-19T06:33:58.032Z,4.95
2018-07-19T06:38:51.188Z,5.23
2018-07-19T06:43:44.354Z,5.12
2018-07-19T06:48:37.696Z,4.27
2018-07-19T06:53:30.991Z,4.60
2018-07-19T06:58:24.246Z,5.03
2018-07-19T07:03:17.570Z,4.97
2018-07-19T07:08:10.749Z,5.00
2018-07-19T07:13:03.991Z,5.17
2018-07-19T07:17:57.261Z,5.12
2018-07-19T07:22:50.794Z,4.93
2018-07-19T07:27:43.964Z,4.77
2018-07-19T07:32:37.293Z,5.03
2018-07-19T07:37:30.521Z,4.00
2018-07-19T07:42:23.809Z,3.72
2018-07-19T07:47:17.059Z,4.03
2018-07-19T07:52:10.335Z,3.25
2018-07-19T07:57:03.588Z,3.47
2018-07-19T08:01:56.901Z,3.70
2018-07-19T08:06:50.236Z,3.50
2018-07-19T08:11:43.422Z,3.80
2018-07-19T08:16:36.694Z,3.70
2018-07-19T08:21:29.935Z,3.50
2018-07-19T08:26:23.247Z,3.75
2018-07-19T08:31:16.894Z,3.20
2018-07-19T08:36:10.447Z,3.30
2018-07-19T08:41:03.699Z,3.10
2018-07-19T08:45:56.930Z,2.70
2018-07-19T08:50:50.237Z,3.30
2018-07-19T08:55:43.462Z,2.72
2018-07-19T09:00:36.723Z,2.70
2018-07-19T09:05:30.031Z,2.83
2018-07-19T09:10:23.274Z,2.93
2018-07-19T09:15:16.544Z,2.75
2018-07-19T09:20:09.826Z,2.50
2018-07-19T09:25:03.135Z,2.72
2018-07-19T09:29:56.393Z,2.80
2018-07-19T09:34:49.841Z,2.62
2018-07-19T09:39:43.076Z,2.50
2018-07-19T09:44:36.320Z,2.90
2018-07-19T09:49:29.538Z,2.80
2018-07-19T09:54:39.998Z,2.60
2018-07-19T09:59:33.283Z,2.60
2018-07-19T10:04:26.493Z,2.40
2018-07-19T10:09:19.859Z,2.40
2018-07-19T10:14:13.155Z,3.43
2018-07-19T10:19:06.426Z,2.70
2018-07-19T10:23:59.717Z,2.80
2018-07-19T10:28:52.960Z,2.92
2018-07-19T10:33:46.235Z,2.33
2018-07-19T10:38:39.510Z,2.87
2018-07-19T10:43:32.823Z,4.40
2018-07-19T10:48:26.129Z,3.65
2018-07-19T10:53:19.633Z,3.37
2018-07-19T10:58:12.887Z,3.90
2018-07-19T11:03:06.465Z,3.83
2018-07-19T11:07:59.744Z,3.57
2018-07-19T11:12:52.945Z,3.45
2018-07-19T11:17:46.190Z,3.60
2018-07-19T11:22:39.469Z,3.98
2018-07-19T11:27:32.707Z,3.80
2018-07-19T11:32:25.905Z,3.40
2018-07-19T11:37:19.224Z,3.60
2018-07-19T11:42:12.606Z,4.33
2018-07-19T11:47:05.754Z,3.87
2018-07-19T11:51:59.007Z,4.40
2018-07-19T11:56:52.238Z,3.67
2018-07-19T12:01:45.516Z,3.30
2018-07-19T12:06:38.815Z,3.90
2018-07-19T12:11:32.030Z,3.70
2018-07-19T12:16:25.165Z,3.60
2018-07-19T12:21:18.583Z,4.00
2018-07-19T12:26:11.819Z,3.97
2018-07-19T12:31:05.095Z,4.08
2018-07-19T12:35:58.377Z,3.90
2018-07-19T12:40:51.640Z,4.80
2018-07-19T12:45:44.890Z,4.13
2018-07-19T12:50:38.135Z,3.50
2018-07-19T12:55:31.362Z,3.37
2018-07-19T13:00:24.594Z,3.70
2018-07-19T13:05:17.821Z,3.60
2018-07-19T13:10:11.265Z,3.17
2018-07-19T13:15:06.112Z,3.50
2018-07-19T13:19:59.311Z,3.40
2018-07-19T13:24:52.621Z,3.65
2018-07-19T13:29:45.850Z,3.40
2018-07-19T13:34:39.107Z,3.72
2018-07-19T13:39:32.491Z,3.40
2018-07-19T13:44:25.855Z,3.85
2018-07-19T13:49:19.165Z,3.60
2018-07-19T13:54:19.339Z,3.50
2018-07-19T13:59:13.201Z,3.70
2018-07-19T14:04:06.916Z,4.17
2018-07-19T14:09:00.202Z,3.87
2018-07-19T14:13:53.424Z,3.50
2018-07-19T14:18:46.671Z,3.73
2018-07-19T14:23:39.902Z,3.92
2018-07-19T14:28:33.139Z,3.80
2018-07-19T14:33:26.365Z,4.17
2018-07-19T14:38:19.545Z,3.90
2018-07-19T14:43:12.780Z,3.70
2018-07-19T14:48:06.067Z,4.00
2018-07-19T14:52:59.207Z,3.55
2018-07-19T14:57:52.553Z,3.67
2018-07-19T15:02:45.812Z,3.67
2018-07-19T15:07:39.042Z,4.13
2018-07-19T15:12:32.297Z,3.30
2018-07-19T15:17:25.546Z,3.30
2018-07-19T15:22:18.797Z,3.47
2018-07-19T15:27:12.400Z,3.70
2018-07-19T15:32:05.716Z,3.70
2018-07-19T15:36:58.989Z,3.57
2018-07-19T15:41:52.216Z,3.30
2018-07-19T15:46:45.461Z,3.15
2018-07-19T15:51:38.723Z,3.37
2018-07-19T15:56:31.957Z,3.67
2018-07-19T16:01:25.271Z,4.33
2018-07-19T16:06:18.593Z,4.05
2018-07-19T16:11:11.806Z,3.33
2018-07-19T16:16:05.161Z,3.37
2018-07-19T16:20:58.403Z,3.83
2018-07-19T16:25:51.522Z,3.47
2018-07-19T16:30:44.794Z,3.63
2018-07-19T16:35:38.014Z,3.98
2018-07-19T16:40:31.161Z,3.33
2018-07-19T16:45:24.432Z,3.90
2018-07-19T16:50:17.701Z,3.50
2018-07-19T16:55:10.937Z,3.70
2018-07-19T17:00:05.205Z,3.87
2018-07-19T17:04:58.359Z,4.03
2018-07-19T17:09:51.602Z,3.67
2018-07-19T17:14:44.844Z,4.30
2018-07-19T17:19:38.080Z,3.83
2018-07-19T17:24:31.347Z,4.22
2018-07-19T17:29:24.548Z,3.40
2018-07-19T17:34:17.908Z,3.65
2018-07-19T17:39:12.549Z,3.97
2018-07-19T17:44:05.851Z,3.80
2018-07-19T17:48:59.097Z,3.70
2018-07-19T17:53:52.304Z,4.50
2018-07-19T17:58:45.523Z,3.90
2018-07-19T18:03:38.764Z,4.07
2018-07-19T18:08:32.021Z,3.98
2018-07-19T18:13:25.249Z,3.83
2018-07-19T18:18:18.667Z,4.17
2018-07-19T18:23:11.956Z,3.80
2018-07-19T18:28:05.650Z,3.85
2018-07-19T18:32:58.901Z,4.67
2018-07-19T18:37:52.133Z,4.63
2018-07-19T18:42:45.286Z,4.25
2018-07-19T18:47:38.575Z,4.53
2018-07-19T18:52:31.818Z,4.37
2018-07-19T18:57:25.041Z,3.90
2018-07-19T19:02:18.279Z,4.05
2018-07-19T19:07:11.504Z,3.83
2018-07-19T19:12:04.802Z,4.28
2018-07-19T19:16:58.067Z,3.80
2018-07-19T19:21:51.436Z,4.58
2018-07-19T19:26:44.668Z,4.80
2018-07-19T19:31:37.921Z,4.97
2018-07-19T19:36:31.469Z,5.60
2018-07-19T19:41:24.723Z,5.20
2018-07-19T19:46:18.014Z,5.23
2018-07-19T19:51:11.253Z,6.27
2018-07-19T19:56:04.525Z,5.03
2018-07-19T20:00:57.888Z,5.70
2018-07-19T20:05:51.219Z,5.70
2018-07-19T20:10:44.466Z,5.93
2018-07-19T20:15:37.727Z,6.70
2018-07-19T20:20:31.025Z,5.80
2018-07-19T20:25:24.220Z,5.13
2018-07-19T20:30:17.498Z,5.62
2018-07-19T20:35:10.742Z,6.13
2018-07-19T20:40:04.017Z,6.72
2018-07-19T20:44:57.282Z,5.73
2018-07-19T20:49:50.542Z,5.60
2018-07-19T20:54:43.758Z,7.93
2018-07-19T20:59:36.989Z,7.47
2018-07-19T21:04:30.505Z,6.33
2018-07-19T21:09:23.715Z,7.10
2018-07-19T21:14:16.972Z,7.00
2018-07-19T21:19:10.215Z,6.87
2018-07-19T21:24:03.433Z,6.58
2018-07-19T21:28:56.726Z,6.20
2018-07-19T21:33:49.963Z,7.87
2018-07-19T21:38:43.179Z,7.50
2018-07-19T21:43:36.417Z,6.45
2018-07-19T21:48:29.645Z,7.70
2018-07-19T21:53:22.921Z,6.17
2018-07-19T21:58:16.190Z,6.37
2018-07-19T22:03:09.473Z,6.65
2018-07-19T22:08:03.672Z,5.40
2018-07-19T22:12:56.926Z,5.75
2018-07-19T22:17:50.157Z,6.23
2018-07-19T22:22:43.451Z,5.85
2018-07-19T22:27:36.719Z,5.77
2018-07-19T22:32:30.354Z,6.53
2018-07-19T22:37:24.713Z,5.47
2018-07-19T22:42:17.967Z,5.97
2018-07-19T22:47:11.226Z,5.65
2018-07-19T22:52:04.354Z,5.23
2018-07-19T22:56:57.667Z,5.37
2018-07-19T23:01:51.761Z,4.87
2018-07-19T23:06:44.902Z,4.50
2018-07-19T23:11:38.179Z,4.93
2018-07-19T23:16:31.482Z,5.07
2018-07-19T23:21:24.636Z,4.60
2018-07-19T23:26:17.876Z,4.77
2018-07-19T23:31:11.152Z,4.85
2018-07-19T23:36:08.475Z,4.93
2018-07-19T23:41:04.592Z,4.47
2018-07-19T23:46:08.316Z,4.60
2018-07-19T23:51:01.560Z,4.50
2018-07-19T23:55:54.799Z,4.25
